createdAt,value
2018-12-31T00:01:52.795Z,14.73
2018-12-31T00:04:23.992Z,13.67
2018-12-31T00:06:55.153Z,13.10
2018-12-31T00:09:26.430Z,13.70
2018-12-31T00:11:57.850Z,15.73
2018-12-31T00:14:28.963Z,14.67
2018-12-31T00:17:00.060Z,15.40
2018-12-31T00:19:31.294Z,7.57
2018-12-31T00:22:02.436Z,7.90
2018-12-31T00:24:33.478Z,11.03
2018-12-31T00:27:04.476Z,9.30
2018-12-31T00:29:35.906Z,8.10
2018-12-31T00:32:11.793Z,9.40
2018-12-31T00:34:44.746Z,5.20
2018-12-31T00:37:16.479Z,5.43
2018-12-31T00:39:47.159Z,4.90
2018-12-31T00:42:18.240Z,5.13
2018-12-31T00:44:49.493Z,4.53
2018-12-31T00:47:20.841Z,4.20
2018-12-31T00:49:51.564Z,5.40
2018-12-31T00:52:22.664Z,4.77
2018-12-31T00:54:54.719Z,3.60
2018-12-31T00:57:25.844Z,3.53
2018-12-31T00:59:56.906Z,4.03
2018-12-31T01:02:28.143Z,4.60
2018-12-31T01:04:59.255Z,3.83
2018-12-31T01:07:30.414Z,3.73
2018-12-31T01:10:01.843Z,3.50
2018-12-31T01:12:32.821Z,3.80
2018-12-31T01:15:04.257Z,3.73
2018-12-31T01:17:35.315Z,3.70
2018-12-31T01:20:08.053Z,3.47
2018-12-31T01:22:39.179Z,3.80
2018-12-31T01:25:10.488Z,4.30
2018-12-31T01:27:41.285Z,3.90
2018-12-31T01:30:22.094Z,3.97
2018-12-31T01:33:02.094Z,4.50
2018-12-31T01:35:50.377Z,3.97
2018-12-31T01:38:21.448Z,4.40
2018-12-31T01:40:52.181Z,4.20
2018-12-31T01:43:40.513Z,4.90
2018-12-31T01:46:11.551Z,5.20
2018-12-31T01:48:47.431Z,5.00
2018-12-31T01:51:18.455Z,5.20
2018-12-31T01:53:49.523Z,5.13
2018-12-31T01:56:20.638Z,5.07
2018-12-31T01:58:51.332Z,4.53
2018-12-31T02:01:22.573Z,5.07
2018-12-31T02:03:53.552Z,5.67
2018-12-31T02:06:24.667Z,5.80
2018-12-31T02:08:55.584Z,6.00
2018-12-31T02:11:26.793Z,5.93
2018-12-31T02:13:58.020Z,5.77
2018-12-31T02:16:29.185Z,5.50
2018-12-31T02:19:00.426Z,6.00
2018-12-31T02:21:31.459Z,6.40
2018-12-31T02:24:02.670Z,5.83
2018-12-31T02:26:33.905Z,7.07
2018-12-31T02:29:05.007Z,6.03
2018-12-31T02:31:36.061Z,5.50
2018-12-31T02:34:07.820Z,6.77
2018-12-31T02:36:39.005Z,5.80
2018-12-31T02:39:10.108Z,6.43
2018-12-31T02:41:40.961Z,5.70
2018-12-31T02:44:11.974Z,5.63
2018-12-31T02:46:49.023Z,6.03
2018-12-31T02:49:20.306Z,5.93
2018-12-31T02:51:51.388Z,6.13
2018-12-31T02:54:22.444Z,6.37
2018-12-31T02:56:53.647Z,5.80
2018-12-31T02:59:34.710Z,6.10
2018-12-31T03:02:06.956Z,6.87
2018-12-31T03:04:38.396Z,6.43
2018-12-31T03:07:09.553Z,6.67
2018-12-31T03:09:40.561Z,6.70
2018-12-31T03:12:11.909Z,7.27
2018-12-31T03:14:42.903Z,6.30
2018-12-31T03:17:14.915Z,6.80
2018-12-31T03:19:46.142Z,6.90
2018-12-31T03:22:17.386Z,6.83
2018-12-31T03:24:49.331Z,7.70
2018-12-31T03:27:20.369Z,7.80
2018-12-31T03:29:51.500Z,7.87
2018-12-31T03:32:24.221Z,7.97
2018-12-31T03:34:54.926Z,7.43
2018-12-31T03:37:26.011Z,7.23
2018-12-31T03:39:58.030Z,6.90
2018-12-31T03:42:28.992Z,7.50
2018-12-31T03:45:00.236Z,6.30
2018-12-31T03:47:31.174Z,6.53
2018-12-31T03:50:02.192Z,6.60
2018-12-31T03:52:33.477Z,7.50
2018-12-31T03:55:04.679Z,6.60
2018-12-31T03:57:35.890Z,6.30
2018-12-31T04:00:07.351Z,7.37
2018-12-31T04:02:51.923Z,4.70
2018-12-31T04:05:25.834Z,5.37
2018-12-31T04:07:57.091Z,5.00
2018-12-31T04:10:28.129Z,5.30
2018-12-31T04:12:59.351Z,4.83
2018-12-31T04:15:30.709Z,5.30
2018-12-31T04:18:08.016Z,5.27
2018-12-31T04:20:38.918Z,4.40
2018-12-31T04:23:10.028Z,4.40
2018-12-31T04:25:42.231Z,4.00
2018-12-31T04:28:13.161Z,4.27
2018-12-31T04:30:43.922Z,7.80
2018-12-31T04:33:15.143Z,4.60
2018-12-31T04:35:46.034Z,3.60
2018-12-31T04:38:17.192Z,4.07
2018-12-31T04:40:47.859Z,4.63
2018-12-31T04:43:19.116Z,5.17
2018-12-31T04:45:49.801Z,4.00
2018-12-31T04:48:20.759Z,4.20
2018-12-31T04:50:55.423Z,3.90
2018-12-31T04:53:26.415Z,6.40
2018-12-31T04:55:57.399Z,6.27
2018-12-31T04:58:30.231Z,6.47
2018-12-31T05:01:01.384Z,6.47
2018-12-31T05:03:32.599Z,7.03
2018-12-31T05:06:09.152Z,6.60
2018-12-31T05:08:41.112Z,6.50
2018-12-31T05:11:18.533Z,6.57
2018-12-31T05:13:49.324Z,6.70
2018-12-31T05:16:20.355Z,6.37
2018-12-31T05:18:51.068Z,6.80
2018-12-31T05:21:21.993Z,7.00
2018-12-31T05:23:52.977Z,6.50
2018-12-31T05:26:28.255Z,7.80
2018-12-31T05:28:59.490Z,6.40
2018-12-31T05:31:30.718Z,6.47
2018-12-31T05:34:01.799Z,7.00
2018-12-31T05:36:32.961Z,6.70
2018-12-31T05:39:05.617Z,6.73
2018-12-31T05:41:36.601Z,5.87
2018-12-31T05:44:07.878Z,7.03
2018-12-31T05:46:39.074Z,7.37
2018-12-31T05:49:10.100Z,7.67
2018-12-31T05:51:57.608Z,7.80
2018-12-31T05:54:28.655Z,6.50
2018-12-31T05:56:59.756Z,6.80
2018-12-31T05:59:30.603Z,6.67
2018-12-31T06:02:01.627Z,6.87
2018-12-31T06:04:33.008Z,6.87
2018-12-31T06:07:04.093Z,6.30
2018-12-31T06:09:35.317Z,7.37
2018-12-31T06:12:06.485Z,7.20
2018-12-31T06:14:38.398Z,8.60
2018-12-31T06:17:09.536Z,6.60
2018-12-31T06:19:41.165Z,8.03
2018-12-31T06:22:12.404Z,7.80
2018-12-31T06:24:43.206Z,6.57
2018-12-31T06:27:14.474Z,7.53
2018-12-31T06:29:45.591Z,7.23
2018-12-31T06:32:16.673Z,7.77
2018-12-31T06:34:50.071Z,7.03
2018-12-31T06:37:24.872Z,7.10
2018-12-31T06:39:56.085Z,9.63
2018-12-31T06:42:32.931Z,7.53
2018-12-31T06:45:04.109Z,8.10
2018-12-31T06:47:35.109Z,8.30
2018-12-31T06:50:09.038Z,8.70
2018-12-31T06:52:40.928Z,7.80
2018-12-31T06:55:12.105Z,7.47
2018-12-31T06:57:42.950Z,7.50
2018-12-31T07:00:15.181Z,7.70
2018-12-31T07:02:45.819Z,6.83
2018-12-31T07:05:16.935Z,7.90
2018-12-31T07:07:49.216Z,8.30
2018-12-31T07:10:20.401Z,7.83
2018-12-31T07:12:51.182Z,7.67
2018-12-31T07:15:23.982Z,6.97
2018-12-31T07:17:54.963Z,9.00
2018-12-31T07:20:26.261Z,8.20
2018-12-31T07:23:02.127Z,6.20
2018-12-31T07:25:33.258Z,6.63
2018-12-31T07:28:04.412Z,6.23
2018-12-31T07:30:35.591Z,6.30
2018-12-31T07:33:06.871Z,7.87
2018-12-31T07:35:39.098Z,7.47
2018-12-31T07:38:14.021Z,7.03
2018-12-31T07:40:44.735Z,10.73
2018-12-31T07:43:15.791Z,7.10
2018-12-31T07:45:47.260Z,8.80
2018-12-31T07:48:19.469Z,8.10
2018-12-31T07:50:50.424Z,7.53
2018-12-31T07:53:21.626Z,8.50
2018-12-31T07:55:52.688Z,30.33
2018-12-31T07:58:44.602Z,9.10
2018-12-31T08:01:15.761Z,9.47
2018-12-31T08:03:46.394Z,10.50
2018-12-31T08:06:17.574Z,10.87
2018-12-31T08:08:48.305Z,9.57
2018-12-31T08:11:19.067Z,12.77
2018-12-31T08:13:49.908Z,10.97
2018-12-31T08:16:21.228Z,9.27
2018-12-31T08:18:52.398Z,10.20
2018-12-31T08:21:23.730Z,9.60
2018-12-31T08:23:54.922Z,9.20
2018-12-31T08:26:33.513Z,9.10
2018-12-31T08:29:05.060Z,10.10
2018-12-31T08:31:36.438Z,10.63
2018-12-31T08:34:07.429Z,9.70
2018-12-31T08:36:41.189Z,11.53
2018-12-31T08:39:21.963Z,9.90
2018-12-31T08:42:05.758Z,11.57
2018-12-31T08:44:36.976Z,12.77
2018-12-31T08:47:08.130Z,11.30
2018-12-31T08:49:39.657Z,14.97
2018-12-31T08:52:10.769Z,11.43
2018-12-31T08:54:41.529Z,10.50
2018-12-31T08:57:15.099Z,11.07
2018-12-31T08:59:49.275Z,10.50
2018-12-31T09:02:21.533Z,12.33
2018-12-31T09:04:52.737Z,11.87
2018-12-31T09:07:24.102Z,11.37
2018-12-31T09:09:55.419Z,11.40
2018-12-31T09:12:26.602Z,12.07
2018-12-31T09:14:57.759Z,12.50
2018-12-31T09:17:28.753Z,13.50
2018-12-31T09:20:00.245Z,14.73
2018-12-31T09:22:31.636Z,14.33
2018-12-31T09:25:02.829Z,15.60
2018-12-31T09:27:34.211Z,14.67
2018-12-31T09:30:07.747Z,15.13
2018-12-31T09:32:39.475Z,13.63
2018-12-31T09:35:10.388Z,14.90
2018-12-31T09:37:41.696Z,14.77
2018-12-31T09:40:18.139Z,14.70
2018-12-31T09:42:49.294Z,13.85
2018-12-31T09:45:20.486Z,14.50
2018-12-31T09:47:53.420Z,14.80
2018-12-31T09:50:24.717Z,14.83
2018-12-31T09:52:56.463Z,15.97
2018-12-31T09:55:27.936Z,14.70
2018-12-31T09:57:59.525Z,12.47
2018-12-31T10:00:30.649Z,11.20
2018-12-31T10:03:02.338Z,10.90
2018-12-31T10:05:33.403Z,11.57
2018-12-31T10:08:04.727Z,8.97
2018-12-31T10:10:36.026Z,9.50
2018-12-31T10:13:07.644Z,9.70
2018-12-31T10:15:39.186Z,10.43
2018-12-31T10:18:10.565Z,8.90
2018-12-31T10:20:41.744Z,7.77
2018-12-31T10:23:13.190Z,8.50
2018-12-31T10:25:44.291Z,8.23
2018-12-31T10:28:28.870Z,8.53
2018-12-31T10:31:02.057Z,8.97
2018-12-31T10:33:33.458Z,9.93
2018-12-31T10:36:04.887Z,9.13
2018-12-31T10:38:36.268Z,9.30
2018-12-31T10:41:11.784Z,9.60
2018-12-31T10:43:43.617Z,10.10
2018-12-31T10:46:14.784Z,11.50
2018-12-31T10:48:46.254Z,11.20
2018-12-31T10:51:19.231Z,12.23
2018-12-31T10:53:50.488Z,12.27
2018-12-31T10:56:21.787Z,11.73
2018-12-31T10:58:52.746Z,13.37
2018-12-31T11:01:24.039Z,13.23
2018-12-31T11:03:58.493Z,5.30
2018-12-31T11:06:30.272Z,5.20
2018-12-31T11:09:01.579Z,4.80
2018-12-31T11:11:33.715Z,5.50
2018-12-31T11:14:04.952Z,4.40
2018-12-31T11:16:36.443Z,5.07
2018-12-31T11:19:08.810Z,5.90
2018-12-31T11:21:40.257Z,6.60
2018-12-31T11:24:12.740Z,6.67
2018-12-31T11:26:43.919Z,6.60
2018-12-31T11:29:15.264Z,4.50
2018-12-31T11:31:47.095Z,7.17
2018-12-31T11:34:18.666Z,4.03
2018-12-31T11:36:49.418Z,4.40
2018-12-31T11:39:20.832Z,3.83
2018-12-31T11:41:59.864Z,4.00
2018-12-31T11:44:32.346Z,3.23
2018-12-31T11:47:04.638Z,4.00
2018-12-31T11:49:35.833Z,2.90
2018-12-31T11:52:07.364Z,3.50
2018-12-31T11:54:39.382Z,4.00
2018-12-31T11:57:10.671Z,4.10
2018-12-31T11:59:42.599Z,3.50
2018-12-31T12:02:15.024Z,3.80
2018-12-31T12:04:45.975Z,4.30
2018-12-31T12:07:17.466Z,5.20
2018-12-31T12:09:48.237Z,4.20
2018-12-31T12:12:19.594Z,4.23
2018-12-31T12:14:50.986Z,6.03
2018-12-31T12:17:22.343Z,4.80
2018-12-31T12:19:53.760Z,6.77
2018-12-31T12:22:25.305Z,5.40
2018-12-31T12:24:57.332Z,5.63
2018-12-31T12:27:28.914Z,3.47
2018-12-31T12:30:00.546Z,4.83
2018-12-31T12:32:32.085Z,4.40
2018-12-31T12:35:06.146Z,4.30
2018-12-31T12:37:37.053Z,4.70
2018-12-31T12:40:10.315Z,4.27
2018-12-31T12:42:41.963Z,4.57
2018-12-31T12:45:13.286Z,6.07
2018-12-31T12:47:45.200Z,5.00
2018-12-31T12:50:16.365Z,4.77
2018-12-31T12:52:47.272Z,5.00
2018-12-31T12:55:19.913Z,6.80
2018-12-31T12:57:51.841Z,5.60
2018-12-31T13:00:22.908Z,5.67
2018-12-31T13:02:54.701Z,5.30
2018-12-31T13:05:26.586Z,5.37
2018-12-31T13:07:57.843Z,10.67
2018-12-31T13:10:29.105Z,7.70
2018-12-31T13:13:00.082Z,7.27
2018-12-31T13:15:44.139Z,6.33
2018-12-31T13:18:21.366Z,9.63
2018-12-31T13:20:52.487Z,8.33
2018-12-31T13:23:23.735Z,6.00
2018-12-31T13:25:55.211Z,6.73
2018-12-31T13:28:26.497Z,8.97
2018-12-31T13:30:57.795Z,10.93
2018-12-31T13:33:29.409Z,7.00
2018-12-31T13:36:02.037Z,7.60
2018-12-31T13:38:33.080Z,6.40
2018-12-31T13:41:04.640Z,5.23
2018-12-31T13:43:43.448Z,6.67
2018-12-31T13:46:15.254Z,6.20
2018-12-31T13:48:46.325Z,6.70
2018-12-31T13:51:17.466Z,6.60
2018-12-31T13:53:48.263Z,7.63
2018-12-31T13:56:19.917Z,8.50
2018-12-31T13:58:50.648Z,8.20
2018-12-31T14:01:21.872Z,8.90
2018-12-31T14:03:53.359Z,8.43
2018-12-31T14:06:25.322Z,9.30
2018-12-31T14:08:56.365Z,9.60
2018-12-31T14:11:27.791Z,9.07
2018-12-31T14:14:10.877Z,9.30
2018-12-31T14:16:42.445Z,8.00
2018-12-31T14:19:14.438Z,6.73
2018-12-31T14:21:45.404Z,7.70
2018-12-31T14:24:21.235Z,8.07
2018-12-31T14:27:00.321Z,8.20
2018-12-31T14:29:25.871Z,8.00
2018-12-31T14:31:57.214Z,9.23
2018-12-31T14:34:29.524Z,7.23
2018-12-31T14:37:01.300Z,8.90
2018-12-31T14:39:32.337Z,7.57
2018-12-31T14:42:06.378Z,7.33
2018-12-31T14:44:40.185Z,9.30
2018-12-31T14:47:18.133Z,7.67
2018-12-31T14:49:47.208Z,9.30
2018-12-31T14:52:18.231Z,7.60
2018-12-31T14:54:49.590Z,7.70
2018-12-31T14:57:21.057Z,7.70
2018-12-31T14:59:51.869Z,7.10
2018-12-31T15:02:23.019Z,7.80
2018-12-31T15:04:53.904Z,9.97
2018-12-31T15:07:25.103Z,8.43
2018-12-31T15:09:56.347Z,6.80
2018-12-31T15:12:27.823Z,8.90
2018-12-31T15:14:59.028Z,11.30
2018-12-31T15:17:30.336Z,8.80
2018-12-31T15:20:01.599Z,10.10
2018-12-31T15:22:33.036Z,9.33
2018-12-31T15:25:06.971Z,8.20
2018-12-31T15:27:38.145Z,7.40
2018-12-31T15:30:09.733Z,8.00
2018-12-31T15:32:40.913Z,8.50
2018-12-31T15:35:12.137Z,8.40
2018-12-31T15:37:43.822Z,5.80
2018-12-31T15:40:15.262Z,6.03
2018-12-31T15:42:46.844Z,6.10
2018-12-31T15:45:21.992Z,6.57
2018-12-31T15:47:53.353Z,7.37
2018-12-31T15:50:24.735Z,8.30
2018-12-31T15:52:55.904Z,7.03
2018-12-31T15:55:27.007Z,10.80
2018-12-31T15:57:59.381Z,11.93
2018-12-31T16:00:30.667Z,6.73
2018-12-31T16:03:04.506Z,6.37
2018-12-31T16:05:35.536Z,8.03
2018-12-31T16:08:06.861Z,7.27
2018-12-31T16:10:38.156Z,9.43
2018-12-31T16:13:09.564Z,9.53
2018-12-31T16:15:47.313Z,10.30
2018-12-31T16:18:25.514Z,10.20
2018-12-31T16:20:56.723Z,10.23
2018-12-31T16:23:28.277Z,9.77
2018-12-31T16:25:59.399Z,9.70
2018-12-31T16:28:35.795Z,6.03
2018-12-31T16:31:07.507Z,6.23
2018-12-31T16:33:45.906Z,6.57
2018-12-31T16:36:17.117Z,6.67
2018-12-31T16:38:48.533Z,7.70
2018-12-31T16:41:20.049Z,7.87
2018-12-31T16:43:54.345Z,6.83
2018-12-31T16:46:30.828Z,6.57
2018-12-31T16:49:10.039Z,6.97
2018-12-31T16:51:51.288Z,6.87
2018-12-31T16:54:23.550Z,8.10
2018-12-31T16:56:54.614Z,7.80
2018-12-31T16:59:25.910Z,9.43
2018-12-31T17:01:57.087Z,9.85
2018-12-31T17:04:42.835Z,6.57
2018-12-31T17:07:14.522Z,6.50
2018-12-31T17:09:45.748Z,7.60
2018-12-31T17:12:17.081Z,6.67
2018-12-31T17:14:53.253Z,7.20
2018-12-31T17:17:24.404Z,6.77
2018-12-31T17:19:55.741Z,7.20
2018-12-31T17:22:27.236Z,7.70
2018-12-31T17:24:58.402Z,8.87
2018-12-31T17:27:29.645Z,9.47
2018-12-31T17:30:01.043Z,9.50
2018-12-31T17:32:44.254Z,10.00
2018-12-31T17:35:15.434Z,10.30
2018-12-31T17:37:46.473Z,11.10
2018-12-31T17:40:17.864Z,11.07
2018-12-31T17:42:48.866Z,11.83
2018-12-31T17:45:26.509Z,13.90
2018-12-31T17:48:02.628Z,13.73
2018-12-31T17:53:14.036Z,13.40
2018-12-31T17:55:45.023Z,16.57
2018-12-31T17:58:16.106Z,12.93
2018-12-31T18:00:47.065Z,11.67
2018-12-31T18:03:18.087Z,13.20
2018-12-31T18:05:49.085Z,16.60
2018-12-31T18:08:20.286Z,17.53
2018-12-31T18:10:51.982Z,15.07
2018-12-31T18:13:22.941Z,15.57
2018-12-31T18:15:58.634Z,15.70
2018-12-31T18:18:29.924Z,15.17
2018-12-31T18:21:01.338Z,15.87
2018-12-31T18:23:32.545Z,16.77
2018-12-31T18:26:03.688Z,18.77
2018-12-31T18:28:35.076Z,16.80
2018-12-31T18:31:06.358Z,18.20
2018-12-31T18:33:37.723Z,21.40
2018-12-31T18:36:09.014Z,17.80
2018-12-31T18:38:40.439Z,17.70
2018-12-31T18:41:11.469Z,20.93
2018-12-31T18:43:42.676Z,22.83
2018-12-31T18:46:13.981Z,17.53
2018-12-31T18:48:45.495Z,21.23
2018-12-31T18:51:16.621Z,20.37
2018-12-31T18:53:47.547Z,22.77
2018-12-31T18:56:19.655Z,21.77
2018-12-31T18:58:50.392Z,21.33
2018-12-31T19:01:21.658Z,21.90
2018-12-31T19:03:52.324Z,20.50
2018-12-31T19:06:38.769Z,28.37
2018-12-31T19:09:07.255Z,21.57
2018-12-31T19:11:38.569Z,25.37
2018-12-31T19:14:09.861Z,19.50
2018-12-31T19:16:44.638Z,20.70
2018-12-31T19:19:16.096Z,20.53
2018-12-31T19:21:47.515Z,19.20
2018-12-31T19:24:18.650Z,21.20
2018-12-31T19:26:56.589Z,21.33
2018-12-31T19:29:27.972Z,21.50
2018-12-31T19:31:59.863Z,21.77
2018-12-31T19:34:31.067Z,19.90
2018-12-31T19:37:02.261Z,21.23
2018-12-31T19:39:42.324Z,20.47
2018-12-31T19:42:20.104Z,21.40
2018-12-31T19:44:52.534Z,29.43
2018-12-31T19:47:23.622Z,21.83
2018-12-31T19:50:15.097Z,21.97
2018-12-31T19:52:49.445Z,20.97
2018-12-31T19:55:21.012Z,23.83
2018-12-31T19:57:52.356Z,19.70
2018-12-31T20:00:23.746Z,19.73
2018-12-31T20:02:54.878Z,21.20
2018-12-31T20:05:25.990Z,19.10
2018-12-31T20:07:57.496Z,21.30
2018-12-31T20:10:38.511Z,23.83
2018-12-31T20:13:10.277Z,23.07
2018-12-31T20:15:48.371Z,23.87
2018-12-31T20:18:14.192Z,23.90
2018-12-31T20:20:45.070Z,23.33
2018-12-31T20:23:16.250Z,25.70
2018-12-31T20:25:46.987Z,24.67
2018-12-31T20:28:18.170Z,24.73
2018-12-31T20:30:54.093Z,24.43
2018-12-31T20:33:42.699Z,25.53
2018-12-31T20:36:13.911Z,26.67
2018-12-31T20:38:44.960Z,26.60
2018-12-31T20:41:15.951Z,24.13
2018-12-31T20:43:47.559Z,25.07
2018-12-31T20:46:20.714Z,25.50
2018-12-31T20:48:51.779Z,25.13
2018-12-31T20:51:22.883Z,23.67
2018-12-31T20:53:54.398Z,26.30
2018-12-31T20:56:25.659Z,28.07
2018-12-31T20:58:56.867Z,25.27
2018-12-31T21:01:28.270Z,21.33
2018-12-31T21:03:59.650Z,27.00
2018-12-31T21:06:48.031Z,25.00
2018-12-31T21:09:19.112Z,24.03
2018-12-31T21:11:50.061Z,25.90
2018-12-31T21:14:22.272Z,33.87
2018-12-31T21:16:53.681Z,27.50
2018-12-31T21:19:24.866Z,34.00
2018-12-31T21:21:56.302Z,25.13
2018-12-31T21:24:27.497Z,30.47
2018-12-31T21:27:09.187Z,23.80
2018-12-31T21:29:43.408Z,26.30
2018-12-31T21:32:14.744Z,25.20
2018-12-31T21:34:45.621Z,22.87
2018-12-31T21:37:16.917Z,25.03
2018-12-31T21:39:47.706Z,22.73
2018-12-31T21:42:19.135Z,24.57
2018-12-31T21:44:51.321Z,22.10
2018-12-31T21:47:22.646Z,23.80
2018-12-31T21:50:06.722Z,23.60
2018-12-31T21:52:45.005Z,25.60
2018-12-31T21:55:16.312Z,26.70
2018-12-31T21:57:47.187Z,21.83
2018-12-31T22:00:18.581Z,22.50
2018-12-31T22:02:56.836Z,23.33
2018-12-31T22:05:22.500Z,25.63
2018-12-31T22:08:00.495Z,26.50
2018-12-31T22:10:31.881Z,24.80
2018-12-31T22:13:03.419Z,25.23
2018-12-31T22:15:34.778Z,30.23
2018-12-31T22:18:05.899Z,26.03
2018-12-31T22:20:37.256Z,21.37
2018-12-31T22:23:08.612Z,21.17
2018-12-31T22:25:40.195Z,22.97
2018-12-31T22:28:11.436Z,22.87
2018-12-31T22:30:43.253Z,23.90
2018-12-31T22:33:15.952Z,22.03
2018-12-31T22:35:46.756Z,23.57
2018-12-31T22:38:31.659Z,24.83
2018-12-31T22:41:02.781Z,24.50
2018-12-31T22:43:36.292Z,24.10
2018-12-31T22:46:27.222Z,25.53
2018-12-31T22:48:58.898Z,24.87
2018-12-31T22:51:30.024Z,25.57
2018-12-31T22:54:05.048Z,24.90
2018-12-31T22:56:36.131Z,24.70
2018-12-31T22:59:07.388Z,26.10
2018-12-31T23:01:38.779Z,27.47
2018-12-31T23:04:10.043Z,25.73
2018-12-31T23:06:42.121Z,25.87
2018-12-31T23:09:15.325Z,26.03
2018-12-31T23:11:46.737Z,25.47
2018-12-31T23:14:18.183Z,23.20
2018-12-31T23:16:55.543Z,24.40
2018-12-31T23:19:28.973Z,25.87
2018-12-31T23:22:00.484Z,24.00
2018-12-31T23:24:32.741Z,27.77
2018-12-31T23:27:04.249Z,25.17
2018-12-31T23:29:35.364Z,28.60
2018-12-31T23:32:07.028Z,26.53
2018-12-31T23:34:38.367Z,26.83
2018-12-31T23:37:11.612Z,27.20
2018-12-31T23:39:43.474Z,39.40
2018-12-31T23:42:15.066Z,84.97
2018-12-31T23:44:52.927Z,109.57
2018-12-31T23:47:21.171Z,95.97
2018-12-31T23:49:52.199Z,94.63
2018-12-31T23:52:28.274Z,84.63
2018-12-31T23:54:59.342Z,70.40
2018-12-31T23:57:30.845Z,68.90
